Time;durP1;ratioP1;P1;durP2;ratioP2;P2;SDS_P1;SDS_P2;PMS_P1;PMS_P2;Temp;Humidity;BMP_temperature;BMP_pressure;BME280_temperature;BME280_humidity;BME280_pressure;Samples;Min_cycle;Max_cycle;Signal;HPM_P1;HPM_P2
2021/09/07 00:03:18;;;;;;;17.77;10.10;;;;;;;7.49;81.53;99910.27;3801198;93;21088;-81
2021/09/07 00:09:20;;;;;;;19.12;10.32;;;;;;;7.53;81.98;99907.67;3888414;91;21614;-80
2021/09/07 00:15:21;;;;;;;18.67;10.78;;;;;;;7.73;82.19;99909.59;3845070;91;21100;-80
2021/09/07 00:21:24;;;;;;;16.77;9.90;;;;;;;7.59;81.25;99911.23;3863836;91;21096;-81
2021/09/07 00:27:26;;;;;;;17.65;9.38;;;;;;;7.41;81.05;99907.03;3877815;91;21420;-80
2021/09/07 00:41:08;;;;;;;19.07;10.03;;;;;;;7.12;81.15;99897.56;3833063;91;21658;-81
2021/09/07 00:47:10;;;;;;;14.87;9.53;;;;;;;7.03;81.50;99890.56;3904351;91;21626;-80
2021/09/07 00:53:15;;;;;;;16.80;9.55;;;;;;;6.82;81.23;99889.16;3879917;91;21685;-80
2021/09/07 00:59:18;;;;;;;22.60;10.13;;;;;;;6.87;82.81;99886.81;3792418;92;21073;-81
2021/09/07 01:05:21;;;;;;;17.98;9.85;;;;;;;6.91;82.35;99887.73;3882151;91;21106;-80
2021/09/07 01:18:41;;;;;;;13.78;8.48;;;;;;;6.88;82.52;99887.84;3808649;91;21529;-80
2021/09/07 01:24:42;;;;;;;17.25;9.63;;;;;;;6.72;81.94;99881.36;3817496;92;21084;-80
2021/09/07 01:30:45;;;;;;;17.23;9.33;;;;;;;6.72;82.83;99877.27;3816064;92;21571;-80
2021/09/07 01:43:33;;;;;;;15.03;8.78;;;;;;;6.76;83.13;99874.70;3900060;90;21118;-81
2021/09/07 01:49:34;;;;;;;13.83;9.38;;;;;;;6.67;83.06;99863.85;3897327;90;21135;-80
2021/09/07 01:55:36;;;;;;;16.07;8.93;;;;;;;6.64;83.51;99870.53;3900262;90;21078;-80
2021/09/07 02:01:38;;;;;;;16.48;9.55;;;;;;;6.86;84.35;99870.26;3806815;92;21649;-81
2021/09/07 02:14:46;;;;;;;16.32;9.58;;;;;;;6.79;83.85;99872.13;3899757;90;21154;-80
2021/09/07 02:20:47;;;;;;;22.85;10.93;;;;;;;6.85;83.85;99868.64;3909256;89;21066;-81
2021/09/07 02:26:50;;;;;;;16.23;9.88;;;;;;;6.72;83.57;99856.09;3902882;90;21610;-80
2021/09/07 02:32:56;;;;;;;15.20;9.50;;;;;;;6.65;84.02;99856.60;3911124;90;21051;-80
2021/09/07 02:38:58;;;;;;;16.05;8.70;;;;;;;6.58;83.86;99855.53;3897392;90;21596;-80
2021/09/07 02:45:00;;;;;;;20.70;9.13;;;;;;;6.64;85.19;99865.88;3810245;92;21698;-80
2021/09/07 02:51:01;;;;;;;18.40;9.70;;;;;;;7.02;85.28;99861.73;3815039;92;21139;-80
2021/09/07 02:57:04;;;;;;;14.20;8.60;;;;;;;7.19;84.97;99858.88;3765917;93;21180;-81
2021/09/07 03:03:05;;;;;;;17.02;9.50;;;;;;;7.12;84.53;99857.27;3895831;89;21069;-80
2021/09/07 03:09:09;;;;;;;17.45;9.55;;;;;;;7.08;84.90;99860.44;3909518;89;21057;-80
2021/09/07 03:15:11;;;;;;;20.55;10.60;;;;;;;7.12;85.22;99864.88;3902036;90;21079;-81
2021/09/07 03:21:13;;;;;;;18.87;9.53;;;;;;;7.06;84.78;99866.21;3907334;88;21050;-80
2021/09/07 03:27:14;;;;;;;23.70;10.85;;;;;;;7.00;84.96;99859.92;3904014;90;21077;-80
2021/09/07 03:33:17;;;;;;;16.95;10.10;;;;;;;6.92;85.20;99861.55;3907503;89;21058;-80
2021/09/07 03:39:21;;;;;;;18.70;10.28;;;;;;;6.90;85.52;99866.55;3897868;89;21138;-80
2021/09/07 03:45:24;;;;;;;18.10;10.30;;;;;;;6.88;85.45;99862.54;3904090;90;21108;-81
2021/09/07 03:51:25;;;;;;;20.20;10.53;;;;;;;6.85;85.43;99855.03;3894211;90;21109;-82
2021/09/07 03:57:28;;;;;;;18.27;9.53;;;;;;;6.86;85.94;99846.55;3900007;90;21518;-80
2021/09/07 04:03:32;;;;;;;17.32;11.22;;;;;;;7.05;86.44;99844.17;3904940;90;21066;-80
2021/09/07 04:10:07;;;;;;;21.27;11.20;;;;;;;7.10;86.10;99849.44;3899145;90;21093;-80
2021/09/07 04:16:09;;;;;;;19.57;10.72;;;;;;;7.16;86.65;99852.19;3901566;90;21047;-80
2021/09/07 04:22:11;;;;;;;23.90;12.33;;;;;;;7.20;86.24;99842.25;3943383;88;24132;-80
2021/09/07 04:28:13;;;;;;;20.60;11.28;;;;;;;7.12;85.81;99845.02;4029349;88;21693;-81
2021/09/07 04:34:14;;;;;;;22.22;11.03;;;;;;;6.98;86.06;99849.92;4020973;87;21111;-82
2021/09/07 04:40:16;;;;;;;24.30;12.30;;;;;;;7.02;86.97;99854.38;3990202;88;21065;-80
2021/09/07 04:46:18;;;;;;;24.85;11.63;;;;;;;7.05;86.75;99856.42;3950511;88;21044;-82
2021/09/07 04:52:20;;;;;;;19.90;10.10;;;;;;;7.09;86.88;99870.19;3991862;88;21038;-81
2021/09/07 04:58:22;;;;;;;17.67;9.10;;;;;;;7.11;86.81;99861.13;3966013;88;21089;-80
2021/09/07 05:04:24;;;;;;;17.87;9.43;;;;;;;7.04;86.63;99864.37;3963934;89;21000;-80
2021/09/07 05:10:26;;;;;;;21.85;9.83;;;;;;;7.01;86.59;99865.59;3960640;89;21560;-81
2021/09/07 05:16:28;;;;;;;20.45;10.18;;;;;;;7.08;86.96;99854.41;3951071;88;21094;-80
2021/09/07 05:29:35;;;;;;;17.37;10.32;;;;;;;7.40;88.22;99856.42;3948643;89;22191;-80
2021/09/07 05:35:36;;;;;;;28.23;12.40;;;;;;;7.61;88.72;99857.18;3946749;89;21111;-81
2021/09/07 05:41:37;;;;;;;24.92;12.63;;;;;;;7.79;88.51;99852.38;3947728;89;21525;-80
2021/09/07 05:47:39;;;;;;;21.80;11.57;;;;;;;7.97;89.06;99861.40;3944955;89;21064;-80
2021/09/07 05:53:41;;;;;;;19.70;10.63;;;;;;;8.20;89.34;99863.17;3965294;88;21052;-81
2021/09/07 05:59:42;;;;;;;21.55;10.45;;;;;;;8.52;89.00;99872.45;3970470;88;21119;-81
2021/09/07 06:05:43;;;;;;;19.60;9.95;;;;;;;8.82;89.09;99853.33;3931040;89;21885;-81
2021/09/07 06:11:44;;;;;;;17.15;9.33;;;;;;;9.06;89.42;99859.59;3972405;88;21051;-80
2021/09/07 06:17:46;;;;;;;26.35;9.70;;;;;;;9.24;89.18;99850.53;3967824;88;21101;-80
2021/09/07 06:23:47;;;;;;;16.20;9.43;;;;;;;9.43;89.55;99859.72;3956574;89;21659;-80
2021/09/07 06:29:48;;;;;;;16.75;9.03;;;;;;;9.67;89.80;99863.50;3954875;89;21036;-80
2021/09/07 06:35:50;;;;;;;15.65;9.68;;;;;;;9.93;90.01;99865.23;3985437;88;21105;-80
2021/09/07 06:41:51;;;;;;;18.15;9.10;;;;;;;10.15;89.88;99855.11;3997007;88;21069;-81
2021/09/07 06:47:53;;;;;;;19.70;9.58;;;;;;;10.37;89.90;99870.34;3944490;88;21084;-84
2021/09/07 06:53:56;;;;;;;17.85;9.78;;;;;;;10.55;89.89;99868.06;3957581;88;21064;-82
2021/09/07 06:59:57;;;;;;;20.50;10.35;;;;;;;10.74;89.91;99856.59;3959453;88;21087;-84
2021/09/07 07:05:59;;;;;;;15.40;9.48;;;;;;;10.84;89.79;99859.37;3993470;87;21457;-81
2021/09/07 07:12:00;;;;;;;20.43;10.15;;;;;;;11.01;90.08;99865.27;4020033;88;21047;-82
2021/09/07 07:18:02;;;;;;;20.08;9.80;;;;;;;11.22;90.01;99864.95;3991497;88;21071;-81
2021/09/07 07:24:04;;;;;;;16.37;9.48;;;;;;;11.36;90.12;99872.12;3995301;88;21044;-83
2021/09/07 07:30:43;;;;;;;16.87;9.18;;;;;;;11.56;90.14;99861.38;4013490;88;21085;-81
2021/09/07 07:36:44;;;;;;;19.87;10.55;;;;;;;11.71;90.11;99867.42;4016021;87;21519;-81
2021/09/07 07:42:45;;;;;;;16.55;9.00;;;;;;;11.99;90.32;99870.72;4004925;88;21046;-83
2021/09/07 07:48:49;;;;;;;15.23;8.50;;;;;;;12.21;90.34;99871.91;4027040;87;21634;-81
2021/09/07 07:54:51;;;;;;;17.90;9.15;;;;;;;12.42;90.19;99882.69;4008496;87;21111;-81
2021/09/07 08:00:52;;;;;;;18.70;8.70;;;;;;;12.68;89.86;99883.91;3996947;88;21081;-80
2021/09/07 08:06:53;;;;;;;14.15;8.10;;;;;;;12.98;89.86;99882.84;4000578;88;21029;-82
2021/09/07 08:12:55;;;;;;;14.45;8.03;;;;;;;13.40;89.84;99881.31;4004849;88;21341;-81
2021/09/07 08:18:57;;;;;;;15.43;7.33;;;;;;;14.03;89.79;99877.39;3839374;89;21113;-81
2021/09/07 08:24:59;;;;;;;14.80;7.12;;;;;;;14.83;89.65;99879.98;4028518;87;21030;-81
2021/09/07 08:31:00;;;;;;;15.43;7.20;;;;;;;15.41;88.86;99871.92;4012105;87;21070;-82
2021/09/07 08:37:03;;;;;;;15.18;7.58;;;;;;;16.05;88.32;99889.58;3989807;88;21058;-83
2021/09/07 08:43:07;;;;;;;11.00;6.83;;;;;;;16.51;87.19;99886.34;3938421;89;21141;-81
2021/09/07 08:49:16;;;;;;;12.33;6.12;;;;;;;16.91;86.60;99883.81;4028591;87;21128;-81
2021/09/07 08:55:21;;;;;;;16.17;6.92;;;;;;;17.31;85.47;99886.70;4020478;87;21639;-82
2021/09/07 09:01:23;;;;;;;12.47;7.05;;;;;;;17.64;85.01;99889.03;3962995;89;21087;-81
2021/09/07 09:07:29;;;;;;;10.95;6.17;;;;;;;17.88;84.19;99875.11;3961836;89;21841;-81
2021/09/07 09:13:47;;;;;;;11.20;6.83;;;;;;;18.10;83.40;99884.11;3960864;89;21587;-82
2021/09/07 09:20:03;;;;;;;13.72;5.97;;;;;;;18.22;82.73;99878.89;4043953;87;21062;-82
2021/09/07 09:26:05;;;;;;;11.50;6.75;;;;;;;18.29;82.19;99883.61;4036935;87;21558;-82
2021/09/07 09:32:11;;;;;;;12.53;6.47;;;;;;;18.45;82.12;99876.98;4037973;87;21066;-83
2021/09/07 09:38:15;;;;;;;10.35;6.12;;;;;;;18.85;81.81;99883.24;4032203;87;21090;-82
2021/09/07 09:44:20;;;;;;;12.23;6.03;;;;;;;19.22;81.31;99876.36;4037395;87;21650;-82
2021/09/07 09:50:27;;;;;;;11.57;6.87;;;;;;;19.31;80.65;99868.36;4012931;87;21593;-83
2021/09/07 09:56:30;;;;;;;10.53;6.00;;;;;;;19.42;79.81;99871.81;3954246;89;21147;-82
2021/09/07 10:02:32;;;;;;;10.28;6.25;;;;;;;20.28;79.82;99866.19;4020125;87;21527;-82
2021/09/07 10:08:44;;;;;;;10.82;7.03;;;;;;;21.12;77.13;99860.71;3989948;88;21125;-82
2021/09/07 10:15:12;;;;;;;10.85;6.40;;;;;;;21.91;76.02;99864.98;4043605;87;21106;-83
2021/09/07 10:28:05;;;;;;;7.47;6.08;;;;;;;22.65;71.32;99852.95;3954057;88;21072;-84
2021/09/07 10:34:07;;;;;;;10.25;7.17;;;;;;;23.27;66.94;99845.62;3946431;88;22307;-83
2021/09/07 10:40:40;;;;;;;8.43;6.55;;;;;;;23.82;67.18;99842.44;3966269;88;21093;-83
2021/09/07 10:46:58;;;;;;;11.57;6.72;;;;;;;24.59;66.76;99839.30;3911691;90;21662;-82
2021/09/07 10:53:05;;;;;;;9.43;6.15;;;;;;;24.46;53.27;99842.09;3887285;90;21067;-83
2021/09/07 10:59:31;;;;;;;6.37;5.62;;;;;;;24.79;54.66;99841.28;3905573;90;21059;-83
2021/09/07 11:12:53;;;;;;;7.78;5.65;;;;;;;26.07;58.51;99832.89;3926969;89;21660;-83
2021/09/07 11:19:02;;;;;;;7.40;5.95;;;;;;;26.51;56.98;99821.53;3917889;89;21090;-84
2021/09/07 11:25:16;;;;;;;7.67;6.08;;;;;;;26.65;55.45;99829.41;3990734;88;21058;-83
2021/09/07 11:31:17;;;;;;;7.37;5.70;;;;;;;26.55;55.10;99824.97;3977908;88;21185;-83
2021/09/07 11:37:19;;;;;;;9.03;6.40;;;;;;;26.01;50.83;99819.27;4016969;87;21539;-83
2021/09/07 11:43:36;;;;;;;8.08;6.33;;;;;;;25.62;53.45;99818.53;3976203;88;21127;-83
2021/09/07 11:49:41;;;;;;;9.20;6.78;;;;;;;24.99;53.69;99818.59;3923018;89;21131;-83
2021/09/07 11:55:50;;;;;;;11.48;6.53;;;;;;;24.78;53.22;99817.30;4013874;87;21051;-84
2021/09/07 12:01:55;;;;;;;7.70;5.72;;;;;;;24.51;53.08;99811.36;4014652;87;21212;-83
2021/09/07 12:07:56;;;;;;;9.85;6.47;;;;;;;24.33;53.44;99808.36;3967270;88;21071;-83
2021/09/07 12:14:13;;;;;;;13.43;7.10;;;;;;;24.01;53.36;99803.75;3984715;88;21075;-83
2021/09/07 12:20:15;;;;;;;;;;;;;;;23.63;53.89;99796.52;3990125;88;21525;-82
2021/09/07 12:26:19;;;;;;;9.90;6.78;;;;;;;23.43;54.38;99784.09;3986027;88;20191;-82
2021/09/07 12:33:04;;;;;;;12.20;7.30;;;;;;;23.13;54.63;99758.76;3989367;88;21103;-82
2021/09/07 12:39:08;;;;;;;11.28;6.85;;;;;;;23.38;54.54;99772.69;3985803;88;21618;-82
2021/09/07 12:45:10;;;;;;;8.48;5.97;;;;;;;23.31;54.34;99777.06;3981823;88;21079;-83
2021/09/07 12:51:17;;;;;;;10.35;6.45;;;;;;;23.18;54.00;99779.17;3996877;88;21074;-83
2021/09/07 12:57:18;;;;;;;10.45;6.55;;;;;;;23.10;54.51;99775.60;3995091;88;21029;-82
2021/09/07 13:03:19;;;;;;;9.53;6.28;;;;;;;23.06;55.52;99763.77;3977687;88;21629;-83
2021/09/07 13:09:59;;;;;;;9.38;6.37;;;;;;;22.88;55.34;99773.23;4004705;88;21056;-82
2021/09/07 13:16:01;;;;;;;10.80;5.97;;;;;;;22.87;54.43;99766.06;4008204;87;21095;-83
2021/09/07 13:22:04;;;;;;;7.95;5.85;;;;;;;22.83;54.35;99767.55;3984271;88;21057;-83
2021/09/07 13:28:06;;;;;;;9.50;5.47;;;;;;;22.88;53.77;99764.86;3986772;88;21025;-82
2021/09/07 13:34:07;;;;;;;9.35;5.80;;;;;;;22.90;54.00;99760.39;3986463;88;21044;-83
2021/09/07 13:40:09;;;;;;;7.83;5.75;;;;;;;22.75;54.18;99756.42;3984004;88;21168;-83
2021/09/07 13:46:10;;;;;;;9.33;5.80;;;;;;;22.64;53.77;99757.91;3985654;88;21058;-83
2021/09/07 13:52:11;;;;;;;7.00;5.47;;;;;;;22.42;53.47;99755.45;3983830;88;21051;-85
2021/09/07 13:58:33;;;;;;;9.58;5.95;;;;;;;22.28;53.56;99751.61;3934451;88;22069;-84
2021/09/07 14:04:34;;;;;;;12.65;6.00;;;;;;;22.15;53.84;99739.56;3878429;90;21085;-84
2021/09/07 14:10:35;;;;;;;10.10;6.10;;;;;;;22.02;53.82;99735.28;3950036;88;21159;-83
2021/09/07 14:16:38;;;;;;;8.35;6.10;;;;;;;21.96;54.03;99731.45;3982094;88;21052;-83
2021/09/07 14:22:43;;;;;;;11.43;5.83;;;;;;;21.83;54.37;99737.54;3985959;88;21146;-83
2021/09/07 14:28:44;;;;;;;10.13;5.65;;;;;;;21.83;54.47;99736.75;4001263;87;21092;-83
2021/09/07 14:42:10;;;;;;;9.55;6.45;;;;;;;21.68;55.16;99732.06;3998678;87;21079;-84
2021/09/07 14:48:12;;;;;;;9.98;6.17;;;;;;;21.68;55.24;99737.03;4000119;87;21337;-84
2021/09/07 14:54:16;;;;;;;12.18;6.87;;;;;;;21.55;55.23;99736.11;3998984;87;22247;-83
2021/09/07 15:00:17;;;;;;;8.85;5.83;;;;;;;21.57;55.29;99737.88;4005537;87;21129;-82
2021/09/07 15:06:20;;;;;;;10.40;5.97;;;;;;;21.50;56.01;99736.62;3999065;87;21151;-83
2021/09/07 15:12:21;;;;;;;10.43;6.20;;;;;;;21.45;56.38;99741.92;4000621;87;21061;-83
2021/09/07 15:18:22;;;;;;;16.90;7.20;;;;;;;21.31;57.09;99747.16;4001718;87;21122;-83
2021/09/07 15:24:25;;;;;;;9.65;6.53;;;;;;;21.15;57.50;99752.67;3995923;87;21910;-82
2021/09/07 15:30:26;;;;;;;9.03;6.40;;;;;;;21.02;57.62;99748.94;4002321;87;21163;-83
2021/09/07 15:36:28;;;;;;;14.10;6.72;;;;;;;20.88;58.09;99742.22;4008994;87;21103;-83
2021/09/07 15:42:31;;;;;;;12.35;6.55;;;;;;;20.83;58.46;99739.92;4006320;87;21078;-83
2021/09/07 15:48:33;;;;;;;7.90;5.40;;;;;;;20.70;58.98;99741.77;4004993;87;21132;-84
2021/09/07 15:54:35;;;;;;;12.95;6.95;;;;;;;20.63;59.31;99742.48;3900023;90;22580;-83
2021/09/07 16:00:36;;;;;;;11.83;7.08;;;;;;;20.49;59.47;99742.13;3907652;90;21020;-83
2021/09/07 16:06:41;;;;;;;11.90;7.50;;;;;;;20.45;59.82;99746.98;3912219;88;21570;-83
2021/09/07 16:12:42;;;;;;;12.18;7.92;;;;;;;20.38;60.05;99743.51;3971316;88;21069;-82
2021/09/07 16:18:44;;;;;;;11.53;7.80;;;;;;;20.34;60.41;99733.06;3992423;88;21132;-83
2021/09/07 16:24:47;;;;;;;15.80;10.58;;;;;;;20.29;60.65;99741.87;3983251;88;21072;-83
2021/09/07 16:30:50;;;;;;;21.90;14.63;;;;;;;20.16;61.08;99737.52;3950838;89;21667;-83
2021/09/07 16:36:51;;;;;;;25.12;17.02;;;;;;;20.04;61.38;99740.27;3970099;89;21135;-84
2021/09/07 16:42:52;;;;;;;22.50;12.95;;;;;;;19.91;61.47;99732.91;3968504;89;21109;-83
2021/09/07 16:48:53;;;;;;;17.50;11.35;;;;;;;19.76;61.61;99730.16;3970609;89;21075;-83
2021/09/07 16:55:04;;;;;;;18.12;10.20;;;;;;;19.59;61.75;99729.19;3961751;89;21044;-83
2021/09/07 17:01:08;;;;;;;13.80;8.58;;;;;;;19.41;62.02;99735.59;3953701;89;21082;-83
2021/09/07 17:07:21;;;;;;;12.78;8.35;;;;;;;19.13;62.64;99730.95;3963692;89;21116;-82
2021/09/07 17:13:19;;;;;;;18.20;10.10;;;;;;;18.84;63.20;99740.17;3992929;88;21165;-82
2021/09/07 17:19:21;;;;;;;15.38;10.53;;;;;;;18.57;63.98;99740.66;4013721;88;21015;-83
2021/09/07 17:25:24;;;;;;;18.00;9.15;;;;;;;18.32;64.83;99738.05;3992004;87;21029;-83
2021/09/07 17:44:02;;;;;;;18.10;10.98;;;;;;;17.61;67.06;99757.74;3957975;88;21048;-82
2021/09/07 17:50:04;;;;;;;16.17;10.93;;;;;;;17.27;67.87;99762.80;3987321;88;21095;-82
2021/09/07 17:56:11;;;;;;;19.32;11.43;;;;;;;16.97;68.95;99762.71;3985621;88;21048;-82
2021/09/07 18:02:09;;;;;;;29.60;14.60;;;;;;;16.83;69.60;99775.77;3935373;89;21061;-82
2021/09/07 18:08:11;;;;;;;18.52;12.45;;;;;;;16.76;70.03;99781.30;3993833;88;21094;-82
2021/09/07 18:14:14;;;;;;;27.48;14.47;;;;;;;16.62;70.63;99786.84;3980333;88;21032;-82
2021/09/07 18:20:17;;;;;;;26.33;17.80;;;;;;;16.38;71.08;99787.01;3952955;89;21077;-82
2021/09/07 18:26:18;;;;;;;23.87;15.68;;;;;;;16.20;71.66;99791.75;3955054;88;21636;-83
2021/09/07 18:32:22;;;;;;;23.22;14.98;;;;;;;16.03;72.34;99800.80;3967622;89;21561;-82
2021/09/07 18:38:24;;;;;;;24.00;16.82;;;;;;;15.97;72.94;99803.75;3959418;89;21076;-82
2021/09/07 18:58:46;;;;;;;42.65;25.10;;;;;;;15.50;74.16;99808.89;3992855;89;21107;-83
2021/09/07 19:04:49;;;;;;;47.65;24.72;;;;;;;15.37;74.71;99804.09;3964363;89;21071;-83
2021/09/07 19:10:51;;;;;;;44.42;26.05;;;;;;;15.22;75.20;99814.25;3953586;89;21588;-82
2021/09/07 19:16:52;;;;;;;40.70;23.40;;;;;;;15.06;75.60;99815.74;3950478;89;21112;-83
2021/09/07 19:22:57;;;;;;;38.13;23.30;;;;;;;14.90;76.04;99820.75;3964569;88;21138;-82
2021/09/07 19:29:00;;;;;;;38.10;21.48;;;;;;;14.76;76.53;99822.03;3972934;88;21320;-83
2021/09/07 19:35:01;;;;;;;41.05;22.50;;;;;;;14.71;77.01;99816.29;3996649;88;21098;-83
2021/09/07 19:41:03;;;;;;;39.10;22.65;;;;;;;14.61;77.51;99814.84;3934308;90;21120;-83
2021/09/07 19:47:05;;;;;;;48.50;25.97;;;;;;;14.48;77.77;99812.16;3970022;88;21082;-83
2021/09/07 20:00:16;;;;;;;41.50;23.90;;;;;;;14.31;78.35;99809.47;3972820;89;21678;-82
2021/09/07 20:06:20;;;;;;;44.18;23.77;;;;;;;14.09;78.55;99814.54;3992898;87;21231;-82
2021/09/07 20:12:22;;;;;;;39.55;22.80;;;;;;;14.00;79.32;99827.22;3973754;89;21067;-83
2021/09/07 20:18:24;;;;;;;37.78;22.98;;;;;;;13.95;79.22;99832.28;4004821;88;21594;-83
2021/09/07 20:24:26;;;;;;;38.53;21.37;;;;;;;13.80;79.51;99829.16;3964270;89;21096;-83
2021/09/07 20:59:59;;;;;;;41.80;24.30;;;;;;;13.16;81.19;99845.44;3968690;89;21683;-83
2021/09/07 21:06:00;;;;;;;42.48;23.18;;;;;;;13.06;81.44;99838.42;3968099;89;21266;-82
2021/09/07 21:12:02;;;;;;;42.58;22.30;;;;;;;12.97;81.68;99840.02;3967548;89;21519;-83
2021/09/07 21:18:03;;;;;;;37.38;20.77;;;;;;;12.85;81.95;99837.48;3937475;89;21139;-83
2021/09/07 21:24:06;;;;;;;36.90;21.27;;;;;;;12.80;82.23;99847.41;3961073;89;21739;-82
2021/09/07 21:30:09;;;;;;;38.25;22.13;;;;;;;12.77;82.37;99848.72;3832996;89;10000517;-83
2021/09/07 21:36:11;;;;;;;36.05;19.73;;;;;;;12.67;82.55;99847.39;3940457;89;21125;-82
2021/09/07 21:42:12;;;;;;;36.88;20.40;;;;;;;12.50;82.76;99858.88;3943776;89;21056;-82
2021/09/07 21:48:13;;;;;;;30.68;18.65;;;;;;;12.46;82.97;99860.78;3959533;89;21076;-83
2021/09/07 21:54:15;;;;;;;34.40;18.90;;;;;;;12.37;83.17;99865.14;3853331;91;21645;-81
2021/09/07 22:00:19;;;;;;;31.52;19.02;;;;;;;12.31;83.39;99865.23;3944065;90;21097;-82
2021/09/07 22:06:22;;;;;;;29.63;17.27;;;;;;;12.25;83.68;99862.58;3960961;89;21005;-82
2021/09/07 22:12:24;;;;;;;30.20;17.15;;;;;;;12.15;83.72;99863.77;3972863;89;21101;-82
2021/09/07 22:18:26;;;;;;;27.40;17.62;;;;;;;12.06;84.00;99859.06;3958832;89;21545;-82
2021/09/07 22:24:28;;;;;;;25.08;16.60;;;;;;;11.97;84.16;99857.94;3978563;88;21094;-82
2021/09/07 22:30:31;;;;;;;28.32;16.57;;;;;;;11.90;84.52;99855.04;3978706;89;21054;-82
2021/09/07 22:36:32;;;;;;;26.12;16.00;;;;;;;11.81;84.64;99857.79;3977900;89;21035;-82
2021/09/07 22:57:07;;;;;;;26.52;16.42;;;;;;;11.73;85.42;99870.58;4025391;88;21075;-82
